METAR (acronimo di METeorological Air Report) è un messaggio meteo emesso nella maggior parte dei casi in ambito aeroportuale

YSSY - Sydney, Australia
Ultimo Aggiornamento: Sabato 19 Ottobre 2019 09:00 CEST
Acquazzoni nelle vicinanze, Parzialmente Nuvoloso
Acquazzoni nelle vicinanze, Parzialmente Nuvoloso
 Wind from Ovest
Vento: Ovest 37 km/h
Temperatura: 24°C
Punto di Rugiada: 1°C
Umidità: 22%
Barometro: 1012 hPa
Condizioni: Acquazzoni nelle vicinanze
Nuvole: Parzialmente Nuvoloso
Visibilità: 10 km
2019/10/19 07:00 YSSY 190700Z 27020KT 9999 VCSH NSC 24/01 Q1012
YMML - Melbourne, Australia
Ultimo Aggiornamento: Sabato 19 Ottobre 2019 09:00 CEST
Prevalentemente Nuvoloso
Prevalentemente Nuvoloso
 Wind from Ovest-Sud-Ovest
Vento: Ovest-Sud-Ovest 22 km/h
Temperatura: 11°C
Punto di Rugiada: 6°C
Umidità: 72%
Barometro: 1018 hPa
Nuvole: Prevalentemente Nuvoloso
Visibilità: 10 km
Nuvole nel Dettaglio: Qualche Nuvola 1067 m
Parzialmente Nuvoloso 1707 m
Prevalentemente Nuvoloso 2377 m
2019/10/19 07:00 YMML 190700Z 25012KT 9999 FEW035 SCT056 BKN078 11/06 Q1018
YBBN - Brisbane, Australia
Ultimo Aggiornamento: Sabato 19 Ottobre 2019 09:00 CEST
Pioggia Leggera, Acquazzoni, Prevalentemente Nuvoloso
Pioggia Leggera, Acquazzoni, Prevalentemente Nuvoloso
 Wind from Nord-Nord-Est
Vento: Nord-Nord-Est 17 km/h
Temperatura: 22°C
Punto di Rugiada: 20°C
Umidità: 88%
Barometro: 1012 hPa
Condizioni: Pioggia Leggera, Acquazzoni
Nuvole: Prevalentemente Nuvoloso
Visibilità: 10 km
Nuvole nel Dettaglio: Qualche Nuvola 762 m
Prevalentemente Nuvoloso 3353 m
Prevalentemente Nuvoloso 4877 m
2019/10/19 07:00 YBBN 190700Z 03009KT 9999 -SHRA FEW025 BKN110 BKN160 22/20 Q1012
 
YPPH - Perth, Australia
Ultimo Aggiornamento: Sabato 19 Ottobre 2019 09:00 CEST
Sereno
Sereno
 Wind from Est
Vento: Est 24 km/h
Temperatura: 32°C
Punto di Rugiada: 5°C
Umidità: 18%
Barometro: 1012 hPa
Condizioni: Sereno
Visibilità: superiore a 10 km
2019/10/19 07:00 YPPH 190700Z 09013KT CAVOK 32/05 Q1012
YBAS - Alice Springs, Australia
Ultimo Aggiornamento: Sabato 19 Ottobre 2019 09:08 CEST
Pioggia Leggera, Acquazzoni, Parzialmente Nuvoloso
Pioggia Leggera, Acquazzoni, Parzialmente Nuvoloso
 Wind from Nord-Ovest
Vento: Nord-Ovest 37 km/h, Raffica: 56 km/h
Temperatura: 31°C
Punto di Rugiada: 4°C
Umidità: 18%
Barometro: 1019 hPa
Condizioni: Pioggia Leggera, Acquazzoni
Nuvole: Parzialmente Nuvoloso
Visibilità: 10 km
Nuvole nel Dettaglio: Parzialmente Nuvoloso 1676 m
Parzialmente Nuvoloso 2134 m
Parzialmente Nuvoloso 2621 m
2019/10/19 07:08 YBAS 190708Z AUTO 32020G30KT 9999 -SHRA SCT055 SCT070 SCT086 31/04 Q1019
NZAA - Auckland, New Zealand
Ultimo Aggiornamento: Sabato 19 Ottobre 2019 09:00 CEST
Prevalentemente Nuvoloso
Prevalentemente Nuvoloso
 Wind from Ovest-Sud-Ovest
Vento: Ovest-Sud-Ovest 26 km/h
Temperatura: 15°C
Punto di Rugiada: 11°C
Umidità: 77%
Barometro: 1014 hPa
Nuvole: Prevalentemente Nuvoloso
Visibilità: 10 km
Nuvole nel Dettaglio: Prevalentemente Nuvoloso 1067 m
2019/10/19 07:00 NZAA 190700Z AUTO 25014KT 9999 BKN035/// 15/11 Q1014 NOSIG
 
NTAA - Tahiti, French Polynesia
Ultimo Aggiornamento: Sabato 19 Ottobre 2019 09:00 CEST
Qualche Nuvola
Qualche Nuvola
 Wind from varies
Vento: variabile 4 km/h
Temperatura: 27°C
Heat Index: 29°C
Punto di Rugiada: 21°C
Umidità: 70%
Barometro: 1017 hPa
Nuvole: Qualche Nuvola
Visibilità: 10 km
Nuvole nel Dettaglio: Qualche Nuvola 610 m
2019/10/19 07:00 NTAA 190700Z VRB02KT 9999 FEW020 27/21 Q1017 NOSIG
NFFN - Nadi, Fiji
Ultimo Aggiornamento: Sabato 19 Ottobre 2019 09:00 CEST
Parzialmente Nuvoloso
Parzialmente Nuvoloso
 Wind from varies
Vento: variabile 2 km/h
Temperatura: 26°C
Punto di Rugiada: 23°C
Umidità: 84%
Barometro: 1014 hPa
Nuvole: Parzialmente Nuvoloso
Visibilità: 10 km
Nuvole nel Dettaglio: Parzialmente Nuvoloso 853 m
Parzialmente Nuvoloso 1524 m
2019/10/19 07:00 NFFN 190700Z VRB01KT 9999 SCT028 SCT050 26/23 Q1014 NOSIG
PKMJ - Majuro, Marshall Islands
Ultimo Aggiornamento: Sabato 19 Ottobre 2019 04:43 CEST
Dati non Recenti
Prevalentemente Nuvoloso
Prevalentemente Nuvoloso
 Wind from Sud-Ovest
Vento: Sud-Ovest 11 km/h
Temperatura: 30°C
Heat Index: 36°C
Punto di Rugiada: 25°C
Umidità: 75%
Barometro: 1009.5 hPa
Nuvole: Prevalentemente Nuvoloso
Visibilità: 24 km
Nuvole nel Dettaglio: Qualche Nuvola 457 m
Parzialmente Nuvoloso 1524 m
Prevalentemente Nuvoloso 9144 m
2019/10/19 02:43 PKMJ 190243Z 23006KT 15SM FEW015 SCT050 BKN300 30/25 A2981 RMK FIRST
 
PGUM - Hagatna, Guam, United States
Ultimo Aggiornamento: Sabato 19 Ottobre 2019 08:54 CEST
Qualche Nuvola
Qualche Nuvola
 Wind from Est
Vento: Est 15 km/h
Temperatura: 28°C
Heat Index: 32°C
Punto di Rugiada: 25°C
Umidità: 84%
Barometro: 1011.5 hPa
Nuvole: Qualche Nuvola
Visibilità: 16 km
Nuvole nel Dettaglio: Qualche Nuvola 1036 m
Qualche Nuvola 3353 m
2019/10/19 06:54 PGUM 190654Z 08008KT 10SM FEW034 FEW110 28/25 A2987 RMK AO2 RAB22E32 SLP106 P0000 T02780250
AYPY - Port Moresby, Papua New Guinea
Ultimo Aggiornamento: Sabato 19 Ottobre 2019 09:00 CEST
Fumo, Foschia, Parzialmente Nuvoloso
Fumo, Foschia, Parzialmente Nuvoloso
 Wind from Sud-Sud-Est
Vento: Sud-Sud-Est 19 km/h, Raffica: 37 km/h
Temperatura: 27°C
Heat Index: 31°C
Punto di Rugiada: 24°C
Umidità: 84%
Barometro: 1010 hPa
Condizioni: Fumo, Foschia
Nuvole: Parzialmente Nuvoloso
Visibilità: 10 km
Nuvole nel Dettaglio: Parzialmente Nuvoloso 1219 m
2019/10/19 07:00 AYPY 190700Z 15010G20KT 9999 FU HZ SCT040 27/24 Q1010=
AGGH - Honiara, Guadalcanal, Solomon Islands
Ultimo Aggiornamento: Sabato 19 Ottobre 2019 09:00 CEST
Prevalentemente Nuvoloso
Prevalentemente Nuvoloso
 Wind from calm
Vento: Calma
Temperatura: 26°C
Punto di Rugiada: 25°C
Umidità: 94%
Barometro: 1010 hPa
Nuvole: Prevalentemente Nuvoloso
Visibilità: 10 km
Nuvole nel Dettaglio: Qualche Nuvola 488 m
Qualche Nuvola 549 m
Prevalentemente Nuvoloso 9144 m
2019/10/19 07:00 AGGH 190700Z 00000KT 9999 FEW016 FEW018CB BKN300 26/25 Q1010